Time;durP1;ratioP1;P1;durP2;ratioP2;P2;SDS_P1;SDS_P2;PMS_P1;PMS_P2;Temp;Humidity;BMP_temperature;BMP_pressure;BME280_temperature;BME280_humidity;BME280_pressure;Samples;Min_cycle;Max_cycle;Signal;HPM_P1;HPM_P2
2023/05/10 00:01:32;;;;;;;7.28;4.65;;;;;;;11.10;60.55;100617.31;5023168;28;20052;-84
2023/05/10 00:04:01;;;;;;;6.30;4.25;;;;;;;11.01;62.21;100625.44;5020945;28;20633;-85
2023/05/10 00:06:31;;;;;;;7.68;4.85;;;;;;;11.13;61.74;100611.94;5019354;28;20037;-87
2023/05/10 00:09:01;;;;;;;6.47;4.25;;;;;;;11.08;61.53;100616.44;5020631;28;20557;-86
2023/05/10 00:11:28;;;;;;;6.07;4.70;;;;;;;11.00;62.72;100607.84;5020489;28;20102;-86
2023/05/10 00:13:55;;;;;;;6.95;4.57;;;;;;;11.03;62.27;100618.34;5018251;28;20080;-86
2023/05/10 00:16:22;;;;;;;7.88;4.93;;;;;;;10.96;62.91;100620.25;5016568;28;20069;-87
2023/05/10 00:18:48;;;;;;;5.88;4.38;;;;;;;11.04;61.98;100616.56;5010453;28;20045;-86
2023/05/10 00:21:15;;;;;;;6.60;4.47;;;;;;;11.06;62.67;100609.47;5019657;28;20037;-86
2023/05/10 00:23:42;;;;;;;8.45;4.18;;;;;;;10.87;63.29;100609.91;5008389;28;20033;-88
2023/05/10 00:26:09;;;;;;;7.82;3.90;;;;;;;10.87;63.67;100615.19;5013649;28;20083;-85
2023/05/10 00:28:38;;;;;;;6.53;4.65;;;;;;;10.84;64.17;100604.66;5012727;28;20075;-85
2023/05/10 00:31:05;;;;;;;8.60;4.90;;;;;;;10.87;64.78;100609.03;4998598;28;20041;-87
2023/05/10 00:33:31;;;;;;;6.45;4.35;;;;;;;10.76;65.11;100596.03;5015934;28;20513;-85
2023/05/10 00:35:58;;;;;;;8.23;4.60;;;;;;;10.76;64.58;100597.81;5009155;28;20414;-86
2023/05/10 00:38:25;;;;;;;5.80;4.43;;;;;;;10.77;64.86;100592.50;5007836;28;20041;-85
2023/05/10 00:40:51;;;;;;;6.68;4.90;;;;;;;10.68;64.40;100600.66;5023586;28;20048;-85
2023/05/10 00:43:18;;;;;;;6.43;4.50;;;;;;;10.71;64.95;100592.66;5016856;28;20033;-89
2023/05/10 00:45:45;;;;;;;6.47;4.73;;;;;;;10.68;64.46;100590.94;5030129;28;20402;-85
2023/05/10 00:48:11;;;;;;;8.23;5.10;;;;;;;10.70;65.07;100590.91;5008535;28;20052;-82
2023/05/10 00:50:39;;;;;;;6.82;4.63;;;;;;;10.52;66.98;100588.66;5017677;28;20474;-86
2023/05/10 00:53:07;;;;;;;7.73;5.53;;;;;;;10.54;66.00;100584.22;5016483;28;20045;-81
2023/05/10 00:55:34;;;;;;;7.10;4.68;;;;;;;10.61;66.44;100577.91;5020899;28;20066;-84
2023/05/10 00:58:01;;;;;;;7.33;5.27;;;;;;;10.59;65.28;100572.63;5018256;28;20037;-87
2023/05/10 01:00:29;;;;;;;6.60;4.80;;;;;;;10.56;66.30;100572.69;5018056;23;20042;-87
2023/05/10 01:02:56;;;;;;;6.50;4.80;;;;;;;10.54;65.83;100571.00;5050244;22;20099;-82
2023/05/10 01:05:23;;;;;;;8.07;5.20;;;;;;;10.53;66.54;100569.28;5000412;28;20064;-88
2023/05/10 01:07:49;;;;;;;8.87;5.50;;;;;;;10.44;66.58;100572.97;4992415;28;20030;-86
2023/05/10 01:10:16;;;;;;;6.30;4.40;;;;;;;10.46;66.51;100568.53;5022867;28;20059;-84
2023/05/10 01:12:45;;;;;;;7.38;4.25;;;;;;;10.40;68.00;100566.00;5038310;28;20045;-85
2023/05/10 01:15:12;;;;;;;6.77;4.87;;;;;;;10.37;67.07;100563.44;5008604;28;20053;-86
2023/05/10 01:17:40;;;;;;;7.23;4.90;;;;;;;10.36;67.15;100559.94;5038926;28;20436;-84
2023/05/10 01:20:09;;;;;;;5.73;4.67;;;;;;;10.35;66.80;100574.06;5031173;28;20045;-86
2023/05/10 01:23:09;;;;;;;7.80;5.53;;;;;;;10.35;66.99;100566.13;5013359;28;20140;-87
2023/05/10 01:25:47;;;;;;;7.13;4.90;;;;;;;10.31;67.10;100560.94;5023028;28;20540;-86
2023/05/10 01:28:47;;;;;;;7.97;5.03;;;;;;;10.37;66.91;100561.69;5032020;28;20037;-86
2023/05/10 01:31:18;;;;;;;7.53;5.30;;;;;;;10.10;69.38;100557.81;5016964;28;20701;-84
2023/05/10 01:33:47;;;;;;;8.70;5.13;;;;;;;10.04;69.25;100557.06;5009233;28;20132;-88
2023/05/10 01:36:35;;;;;;;8.53;5.50;;;;;;;10.07;69.62;100562.25;5031198;28;20045;-86
2023/05/10 01:39:15;;;;;;;7.27;4.53;;;;;;;9.98;69.21;100547.47;5030931;28;20048;-86
2023/05/10 01:42:03;;;;;;;6.77;4.43;;;;;;;10.03;70.29;100553.53;5033318;28;20052;-85
2023/05/10 01:44:54;;;;;;;7.90;5.20;;;;;;;10.01;69.88;100547.44;5002092;28;20055;-87
2023/05/10 01:47:32;;;;;;;7.00;5.00;;;;;;;9.98;69.53;100541.34;5014456;28;20210;-85
2023/05/10 01:50:02;;;;;;;7.93;5.07;;;;;;;10.00;68.85;100544.81;5019742;28;20065;-88
2023/05/10 01:52:43;;;;;;;5.27;4.77;;;;;;;9.91;70.02;100545.84;5012944;28;20037;-86
2023/05/10 01:55:15;;;;;;;6.37;4.60;;;;;;;9.97;69.74;100542.22;5046721;28;20103;-86
2023/05/10 01:57:43;;;;;;;7.03;4.87;;;;;;;9.95;70.31;100530.84;5043709;28;20043;-88
2023/05/10 02:00:11;;;;;;;5.57;4.27;;;;;;;9.84;70.15;100534.56;5050004;28;20072;-87
2023/05/10 02:02:49;;;;;;;7.77;5.27;;;;;;;9.81;70.05;100534.59;5009547;28;20063;-87
2023/05/10 02:05:17;;;;;;;6.63;5.23;;;;;;;9.87;71.20;100537.13;5012091;28;20497;-86
2023/05/10 02:07:44;;;;;;;7.63;5.10;;;;;;;9.69;71.24;100532.22;5028999;28;20391;-87
2023/05/10 02:10:11;;;;;;;6.83;4.73;;;;;;;9.78;70.98;100526.78;5034155;28;20059;-89
2023/05/10 02:12:41;;;;;;;7.73;4.80;;;;;;;9.65;70.49;100527.88;5005024;28;20095;-85
2023/05/10 02:15:09;;;;;;;9.83;5.17;;;;;;;9.72;70.39;100536.56;5024813;28;20486;-86
2023/05/10 02:17:37;;;;;;;7.40;5.07;;;;;;;9.64;71.30;100530.56;5014146;28;20151;-87
2023/05/10 02:20:05;;;;;;;7.43;5.30;;;;;;;9.71;70.63;100526.91;5029780;28;20184;-86
2023/05/10 02:22:32;;;;;;;6.67;5.00;;;;;;;9.55;71.22;100527.19;5028925;28;20044;-85
2023/05/10 02:25:00;;;;;;;7.67;4.83;;;;;;;9.66;71.26;100519.06;5018295;28;20041;-84
2023/05/10 02:27:27;;;;;;;7.97;4.80;;;;;;;9.66;72.44;100526.13;5003779;28;20043;-86
2023/05/10 02:29:55;;;;;;;8.67;4.80;;;;;;;9.59;71.85;100522.75;5024338;28;20071;-85
2023/05/10 02:32:22;;;;;;;7.67;5.13;;;;;;;9.64;70.62;100520.88;5023849;28;20041;-84
2023/05/10 02:34:51;;;;;;;8.03;4.83;;;;;;;9.58;71.17;100523.63;5011629;28;20108;-85
2023/05/10 02:37:21;;;;;;;7.67;5.13;;;;;;;9.52;71.47;100529.91;5053328;28;20037;-85
2023/05/10 02:39:53;;;;;;;5.97;4.67;;;;;;;9.56;72.36;100515.75;5010417;28;20042;-85
2023/05/10 02:42:25;;;;;;;7.70;5.33;;;;;;;9.67;70.12;100512.94;4997943;28;20052;-86
2023/05/10 02:44:59;;;;;;;7.67;5.87;;;;;;;9.69;70.34;100518.16;5038465;28;20044;-88
2023/05/10 02:47:27;;;;;;;;;;;;;;;9.63;70.73;100520.91;5009974;28;20405;-85
2023/05/10 02:49:53;;;;;;;8.23;4.83;;;;;;;9.57;70.38;100522.75;5034054;28;19964;-87
2023/05/10 02:52:26;;;;;;;7.10;4.53;;;;;;;9.63;70.74;100523.53;5015742;28;20482;-84
2023/05/10 02:54:55;;;;;;;7.60;5.07;;;;;;;9.58;70.98;100519.25;5030468;28;20037;-85
2023/05/10 02:57:28;;;;;;;7.90;5.40;;;;;;;9.55;70.59;100527.19;5032586;28;20041;-86
2023/05/10 02:59:55;;;;;;;6.67;4.80;;;;;;;9.52;71.12;100526.41;5031427;28;20700;-85
2023/05/10 03:02:22;;;;;;;15.17;5.50;;;;;;;9.61;69.39;100515.66;5001440;28;20037;-85
2023/05/10 03:04:48;;;;;;;19.87;6.20;;;;;;;9.56;70.04;100507.81;5020461;28;20050;-86
2023/05/10 03:07:16;;;;;;;7.90;5.20;;;;;;;9.61;70.51;100512.16;5030202;28;20033;-84
2023/05/10 03:09:43;;;;;;;5.73;4.80;;;;;;;9.51;70.56;100525.53;5001779;28;20041;-84
2023/05/10 03:12:32;;;;;;;6.73;5.13;;;;;;;9.36;71.77;100519.66;5029091;28;20049;-85
2023/05/10 03:15:42;;;;;;;6.97;4.50;;;;;;;9.41;71.96;100512.50;5015647;28;20040;-85
2023/05/10 03:18:28;;;;;;;6.80;4.90;;;;;;;9.39;70.87;100512.53;5010330;28;20077;-85
2023/05/10 03:21:02;;;;;;;8.13;4.80;;;;;;;9.36;71.30;100515.25;5012074;28;20490;-85
2023/05/10 03:23:40;;;;;;;5.97;4.90;;;;;;;9.41;70.29;100523.06;5016027;28;20041;-85
2023/05/10 03:26:10;;;;;;;6.23;4.80;;;;;;;9.43;70.38;100519.53;4997497;28;20054;-84
2023/05/10 03:28:41;;;;;;;15.88;5.65;;;;;;;9.45;69.63;100517.72;5014919;28;20052;-84
2023/05/10 03:31:09;;;;;;;7.77;4.73;;;;;;;9.41;70.79;100510.75;5028342;28;20075;-85
2023/05/10 03:33:35;;;;;;;8.53;4.97;;;;;;;9.43;70.88;100518.66;5009775;28;20126;-86
2023/05/10 03:36:03;;;;;;;9.20;5.03;;;;;;;9.33;73.42;100510.00;4998988;28;20080;-85
2023/05/10 03:38:29;;;;;;;8.20;4.93;;;;;;;9.35;71.49;100513.50;5006894;28;20041;-85
2023/05/10 03:40:56;;;;;;;8.53;5.20;;;;;;;9.40;70.06;100516.91;4996834;28;20052;-86
2023/05/10 03:43:23;;;;;;;6.67;4.93;;;;;;;9.30;72.54;100515.34;5000250;28;20045;-86
2023/05/10 03:45:49;;;;;;;7.87;5.13;;;;;;;9.26;72.29;100497.84;5032166;28;20046;-87
2023/05/10 03:48:16;;;;;;;7.10;5.33;;;;;;;9.35;71.20;100502.97;4999947;28;20099;-85
2023/05/10 03:50:46;;;;;;;7.00;4.60;;;;;;;9.31;70.40;100506.53;4998712;28;20053;-85
2023/05/10 03:53:13;;;;;;;6.40;4.60;;;;;;;9.43;70.84;100510.75;5035049;28;20045;-86
2023/05/10 03:55:39;;;;;;;7.73;5.23;;;;;;;9.32;72.52;100514.41;5013173;28;20038;-88
2023/05/10 03:58:07;;;;;;;6.07;4.73;;;;;;;9.34;69.89;100506.50;4999609;28;20038;-84
2023/05/10 04:00:33;;;;;;;7.33;5.03;;;;;;;9.39;71.48;100493.22;5028071;28;20064;-89
2023/05/10 04:03:02;;;;;;;5.93;4.53;;;;;;;9.39;73.21;100511.69;5030691;28;20045;-85
2023/05/10 04:05:29;;;;;;;7.93;4.90;;;;;;;9.37;70.75;100511.72;5003382;28;20048;-87
2023/05/10 04:07:55;;;;;;;8.53;5.43;;;;;;;9.37;71.79;100505.56;5006667;28;20051;-82
2023/05/10 04:10:22;;;;;;;7.53;5.23;;;;;;;9.43;70.95;100506.34;5021843;28;20037;-82
2023/05/10 04:12:49;;;;;;;7.23;4.60;;;;;;;9.33;72.35;100507.38;5020941;28;20037;-82
2023/05/10 04:15:16;;;;;;;7.80;5.20;;;;;;;9.36;71.58;100504.69;4999429;28;20519;-83
2023/05/10 04:17:42;;;;;;;8.77;5.30;;;;;;;9.27;73.86;100500.47;5019822;28;20041;-82
2023/05/10 04:20:10;;;;;;;7.17;4.67;;;;;;;9.30;73.61;100499.53;5008968;28;20053;-81
2023/05/10 04:22:36;;;;;;;7.20;4.87;;;;;;;9.48;71.53;100496.56;5012255;28;20450;-81
2023/05/10 04:25:04;;;;;;;6.90;4.67;;;;;;;9.54;70.57;100501.72;5022560;28;20037;-82
2023/05/10 04:27:31;;;;;;;6.17;4.80;;;;;;;9.67;69.73;100496.19;5033470;28;20124;-81
2023/05/10 04:29:57;;;;;;;6.37;4.50;;;;;;;9.72;69.93;100505.78;5022911;28;20119;-82
2023/05/10 04:32:24;;;;;;;8.03;4.93;;;;;;;9.67;71.52;100501.47;5033891;28;20029;-81
2023/05/10 04:34:51;;;;;;;5.43;4.17;;;;;;;9.51;72.57;100501.78;5030935;28;20127;-82
2023/05/10 04:37:18;;;;;;;6.77;4.67;;;;;;;9.52;71.69;100490.34;5032458;28;20037;-81
2023/05/10 04:39:44;;;;;;;9.67;4.80;;;;;;;9.59;69.50;100491.97;5002896;28;20038;-82
2023/05/10 04:42:11;;;;;;;7.33;4.90;;;;;;;9.62;71.00;100490.16;4996401;28;20072;-81
2023/05/10 04:44:38;;;;;;;5.53;4.50;;;;;;;9.65;69.22;100485.69;5013577;28;20041;-82
2023/05/10 04:47:05;;;;;;;6.70;4.93;;;;;;;9.75;69.56;100481.09;4997463;28;20059;-83
2023/05/10 04:49:32;;;;;;;7.40;4.50;;;;;;;9.75;70.14;100489.00;5032715;28;20044;-81
2023/05/10 04:51:58;;;;;;;7.50;4.60;;;;;;;9.84;68.32;100494.13;5003915;28;20041;-84
2023/05/10 04:54:25;;;;;;;8.47;5.10;;;;;;;9.90;68.31;100490.47;4996106;28;20048;-83
2023/05/10 04:56:52;;;;;;;6.80;4.50;;;;;;;10.03;67.72;100481.41;5026248;28;20462;-81
2023/05/10 04:59:18;;;;;;;7.40;4.30;;;;;;;10.19;67.56;100488.09;5027752;28;20490;-83
2023/05/10 05:01:45;;;;;;;7.93;4.70;;;;;;;10.18;65.76;100494.28;5015853;28;20489;-83
2023/05/10 05:04:12;;;;;;;6.03;4.83;;;;;;;10.37;66.28;100487.72;5044457;28;20421;-82
2023/05/10 05:06:38;;;;;;;6.57;4.40;;;;;;;10.42;66.08;100484.97;5026985;28;20486;-83
2023/05/10 05:09:05;;;;;;;7.97;4.87;;;;;;;10.33;66.70;100479.91;5028049;28;20041;-82
2023/05/10 05:11:32;;;;;;;7.90;4.83;;;;;;;10.35;66.12;100478.97;5011956;28;20033;-81
2023/05/10 05:13:59;;;;;;;5.82;4.43;;;;;;;10.32;67.57;100479.03;5014955;28;20137;-84
2023/05/10 05:16:26;;;;;;;7.83;4.83;;;;;;;10.47;66.81;100482.25;5051146;28;20033;-81
2023/05/10 05:18:53;;;;;;;6.93;4.40;;;;;;;10.52;66.51;100475.97;5034425;28;20640;-81
2023/05/10 05:21:20;;;;;;;7.83;4.47;;;;;;;10.57;67.57;100474.06;5050356;28;20045;-81
2023/05/10 05:23:47;;;;;;;6.32;4.32;;;;;;;10.66;66.27;100479.13;5017076;28;20079;-82
2023/05/10 05:26:14;;;;;;;6.20;4.20;;;;;;;10.62;64.89;100480.13;5026842;28;20056;-82
2023/05/10 05:28:41;;;;;;;5.60;4.23;;;;;;;10.70;67.11;100474.66;5014217;28;20072;-82
2023/05/10 05:31:08;;;;;;;5.40;4.20;;;;;;;10.88;63.97;100466.28;5003211;28;20042;-81
2023/05/10 05:33:36;;;;;;;9.00;4.70;;;;;;;11.23;62.27;100470.66;5020115;28;20099;-84
2023/05/10 05:36:04;;;;;;;9.93;4.22;;;;;;;11.77;60.56;100469.19;5036134;28;20041;-84
2023/05/10 05:38:31;;;;;;;6.55;4.93;;;;;;;11.97;60.11;100473.97;5014539;28;20057;-83
2023/05/10 05:40:58;;;;;;;6.60;3.83;;;;;;;12.14;59.42;100471.69;5029069;28;20042;-84
2023/05/10 05:43:25;;;;;;;5.78;3.92;;;;;;;12.05;58.26;100471.94;5027439;28;20567;-84
2023/05/10 05:45:53;;;;;;;105.72;15.02;;;;;;;11.84;61.07;100471.66;5017512;28;20040;-84
2023/05/10 05:48:20;;;;;;;11.93;5.50;;;;;;;11.86;61.00;100476.91;5020543;28;20029;-84
2023/05/10 05:50:47;;;;;;;6.22;3.70;;;;;;;12.15;58.85;100472.53;5051954;28;20320;-85
2023/05/10 05:53:14;;;;;;;5.65;4.28;;;;;;;12.59;56.96;100466.72;5038063;28;20688;-83
2023/05/10 05:55:51;;;;;;;4.88;3.97;;;;;;;12.92;55.14;100478.03;5020685;28;20033;-84
2023/05/10 05:58:18;;;;;;;4.57;4.03;;;;;;;12.92;55.41;100472.72;5037681;28;20039;-84
2023/05/10 06:00:44;;;;;;;5.28;3.88;;;;;;;13.70;52.19;100466.53;5020535;28;20044;-84
2023/05/10 06:03:11;;;;;;;4.88;3.30;;;;;;;15.44;48.37;100457.78;5013161;28;20188;-84
2023/05/10 06:05:38;;;;;;;40.53;9.70;;;;;;;16.26;45.68;100465.66;5053752;28;20037;-84
2023/05/10 06:08:05;;;;;;;8.10;4.22;;;;;;;17.50;43.38;100464.88;5036723;28;20048;-83
2023/05/10 06:10:32;;;;;;;5.53;3.72;;;;;;;17.88;41.74;100473.56;5039467;28;20084;-83
2023/05/10 06:12:59;;;;;;;4.70;3.70;;;;;;;18.88;39.64;100459.06;5009632;28;20038;-85
2023/05/10 06:15:27;;;;;;;9.10;3.92;;;;;;;18.59;39.73;100466.06;5024373;28;20387;-84
2023/05/10 06:17:53;;;;;;;5.30;3.90;;;;;;;18.25;39.20;100462.59;5017215;28;20150;-83
2023/05/10 06:20:20;;;;;;;4.53;3.78;;;;;;;18.14;40.19;100456.94;5022548;28;20618;-84
2023/05/10 06:22:47;;;;;;;4.32;3.72;;;;;;;17.68;40.96;100469.25;5003792;28;20041;-83
2023/05/10 06:25:14;;;;;;;27.08;5.28;;;;;;;18.03;40.25;100455.84;5030769;28;20045;-84
2023/05/10 06:27:41;;;;;;;6.10;3.40;;;;;;;17.35;41.51;100469.19;5014640;28;20084;-85
2023/05/10 06:30:09;;;;;;;5.40;3.55;;;;;;;17.15;41.91;100457.75;5007415;28;20137;-84
2023/05/10 06:32:39;;;;;;;4.15;3.25;;;;;;;16.88;43.94;100459.09;5032216;28;20064;-84
2023/05/10 06:35:06;;;;;;;5.45;3.80;;;;;;;17.10;42.93;100462.44;5020578;28;20052;-85
2023/05/10 06:37:34;;;;;;;5.13;3.58;;;;;;;16.82;43.56;100454.09;5033921;28;20040;-83
2023/05/10 06:40:01;;;;;;;5.65;3.90;;;;;;;16.24;46.38;100460.41;5033262;28;20057;-84
2023/05/10 06:42:28;;;;;;;5.03;3.75;;;;;;;16.39;45.66;100448.13;5020450;28;20164;-83
2023/05/10 06:44:55;;;;;;;5.05;3.47;;;;;;;16.38;45.60;100451.72;5016417;28;20615;-84
2023/05/10 06:47:22;;;;;;;7.53;4.53;;;;;;;16.43;46.15;100448.84;4998872;28;21773;-83
2023/05/10 06:49:48;;;;;;;6.07;4.00;;;;;;;16.22;44.97;100442.72;5010254;28;20049;-84
2023/05/10 06:52:15;;;;;;;6.15;3.90;;;;;;;16.11;45.44;100443.22;5036926;28;20052;-85
2023/05/10 06:54:42;;;;;;;6.57;3.70;;;;;;;16.18;45.55;100449.16;5022440;28;20556;-84
2023/05/10 06:57:09;;;;;;;4.32;3.58;;;;;;;16.55;45.61;100446.44;5026425;28;20440;-84
2023/05/10 06:59:56;;;;;;;4.88;3.42;;;;;;;16.78;45.17;100441.81;5030711;28;20522;-85
2023/05/10 07:02:23;;;;;;;6.05;3.55;;;;;;;17.22;46.02;100441.38;5026469;28;20125;-86
2023/05/10 07:04:51;;;;;;;4.70;3.60;;;;;;;17.42;46.08;100446.56;5000001;28;20038;-82
2023/05/10 07:07:19;;;;;;;4.75;3.65;;;;;;;16.77;43.90;100448.97;5027439;28;20033;-85
2023/05/10 07:09:45;;;;;;;4.65;3.13;;;;;;;17.31;45.47;100451.59;5037317;28;20444;-84
2023/05/10 07:12:12;;;;;;;4.03;3.25;;;;;;;16.96;45.27;100443.56;5073928;28;20041;-83
2023/05/10 07:14:41;;;;;;;5.40;3.70;;;;;;;17.17;45.20;100442.50;5021231;28;20098;-83
2023/05/10 07:17:08;;;;;;;5.90;3.50;;;;;;;17.03;44.75;100437.00;5026324;28;20042;-85
2023/05/10 07:19:35;;;;;;;4.53;3.75;;;;;;;17.15;44.69;100435.50;5012679;28;20030;-83
2023/05/10 07:22:02;;;;;;;4.20;3.58;;;;;;;17.45;45.78;100438.38;5012720;28;20095;-87
2023/05/10 07:24:31;;;;;;;6.25;4.05;;;;;;;17.52;44.48;100438.94;5006614;28;20520;-87
2023/05/10 07:26:58;;;;;;;3.60;3.20;;;;;;;17.63;43.51;100444.56;5022188;28;20178;-85
2023/05/10 07:29:25;;;;;;;5.20;3.70;;;;;;;17.93;44.82;100437.63;5024448;28;20040;-82
2023/05/10 07:31:51;;;;;;;5.53;3.97;;;;;;;18.25;43.87;100426.97;5024410;28;20037;-84
2023/05/10 07:34:18;;;;;;;5.95;3.50;;;;;;;17.89;42.30;100425.34;5018308;28;20056;-83
2023/05/10 07:36:45;;;;;;;5.68;3.47;;;;;;;17.21;43.41;100428.97;5015699;28;20038;-83
2023/05/10 07:39:15;;;;;;;5.65;3.85;;;;;;;17.54;44.19;100437.03;5001491;28;20041;-82
2023/05/10 07:41:53;;;;;;;7.57;3.75;;;;;;;17.99;45.70;100429.28;5017280;28;20033;-84
2023/05/10 07:44:20;;;;;;;8.27;3.55;;;;;;;18.13;42.68;100431.16;5041815;28;20041;-82
2023/05/10 07:46:47;;;;;;;5.55;3.78;;;;;;;17.91;42.74;100427.97;5016903;28;20034;-82
2023/05/10 07:49:14;;;;;;;7.20;3.67;;;;;;;18.49;43.37;100425.56;5031638;28;20047;-83
2023/05/10 07:51:42;;;;;;;4.75;3.28;;;;;;;18.59;44.01;100422.38;5034479;28;20041;-83
2023/05/10 07:54:09;;;;;;;4.68;3.30;;;;;;;18.92;43.48;100433.84;5045192;28;20072;-81
2023/05/10 07:56:36;;;;;;;4.32;3.00;;;;;;;19.01;43.36;100425.25;5041445;28;20567;-82
2023/05/10 07:59:06;;;;;;;4.95;3.50;;;;;;;18.91;41.09;100423.19;5034184;28;20070;-81
2023/05/10 08:01:35;;;;;;;4.40;3.05;;;;;;;18.57;43.12;100423.31;5020475;28;20033;-83
2023/05/10 08:04:02;;;;;;;5.20;3.30;;;;;;;18.36;41.92;100426.34;5019996;28;20164;-83
2023/05/10 08:06:29;;;;;;;5.40;3.38;;;;;;;19.03;42.04;100426.03;5015904;28;20050;-84
2023/05/10 08:08:57;;;;;;;4.57;3.47;;;;;;;19.01;42.24;100422.59;5032568;28;20037;-81
2023/05/10 08:11:24;;;;;;;3.72;2.97;;;;;;;18.89;41.98;100420.63;5018309;28;20041;-82
2023/05/10 08:13:51;;;;;;;4.43;3.30;;;;;;;19.20;43.23;100413.44;5009335;28;20183;-82
2023/05/10 08:16:19;;;;;;;3.85;2.92;;;;;;;19.27;42.57;100421.03;5042315;28;20049;-81
2023/05/10 08:18:47;;;;;;;7.90;3.28;;;;;;;19.64;42.37;100422.34;5030372;28;20495;-81
2023/05/10 08:21:14;;;;;;;5.93;3.10;;;;;;;19.83;43.05;100424.72;5019761;28;20128;-83
2023/05/10 08:23:40;;;;;;;6.55;3.45;;;;;;;19.12;41.24;100422.81;5015090;28;20124;-83
2023/05/10 08:26:07;;;;;;;3.67;2.92;;;;;;;19.45;41.82;100415.50;5011642;28;20056;-83
2023/05/10 08:28:34;;;;;;;8.68;5.72;;;;;;;19.73;42.33;100418.22;5020073;28;20087;-80
2023/05/10 08:31:01;;;;;;;16.45;6.35;;;;;;;19.51;41.81;100412.47;5036499;28;20110;-80
2023/05/10 08:33:28;;;;;;;6.10;4.00;;;;;;;19.22;41.80;100420.44;5012262;28;20045;-81
2023/05/10 08:35:55;;;;;;;5.45;3.33;;;;;;;19.62;42.62;100404.66;5015496;28;20041;-83
2023/05/10 08:38:21;;;;;;;5.50;3.38;;;;;;;19.38;41.89;100413.19;4999081;28;20051;-82
2023/05/10 08:40:50;;;;;;;5.35;3.63;;;;;;;19.66;42.00;100415.06;5006651;28;20067;-83
2023/05/10 08:43:18;;;;;;;4.72;3.20;;;;;;;19.91;41.57;100421.56;5012104;28;20095;-81
2023/05/10 08:45:47;;;;;;;4.05;3.33;;;;;;;19.98;40.74;100417.56;5023344;28;20060;-82
2023/05/10 08:48:15;;;;;;;17.40;5.50;;;;;;;20.10;40.75;100408.75;5011637;28;20076;-82
2023/05/10 08:50:44;;;;;;;4.43;2.80;;;;;;;20.58;39.98;100406.53;5017358;28;20449;-80
2023/05/10 08:53:12;;;;;;;6.75;4.82;;;;;;;20.69;39.19;100417.44;5043473;28;20460;-81
2023/05/10 08:55:41;;;;;;;18.20;14.10;;;;;;;20.92;39.12;100406.97;5010355;28;20038;-81
2023/05/10 08:58:09;;;;;;;6.88;5.63;;;;;;;21.12;38.69;100409.19;5010691;28;20468;-82
2023/05/10 09:00:36;;;;;;;3.53;3.05;;;;;;;21.07;39.04;100408.63;5010030;28;20041;-82
2023/05/10 09:03:05;;;;;;;11.82;9.52;;;;;;;21.34;37.89;100401.38;5018354;28;20037;-81
2023/05/10 09:05:32;;;;;;;42.45;31.98;;;;;;;21.27;39.20;100408.16;5018267;28;20468;-81
2023/05/10 09:08:00;;;;;;;5.25;4.53;;;;;;;21.60;38.01;100414.81;5009294;28;20100;-82
2023/05/10 09:10:27;;;;;;;3.78;3.10;;;;;;;21.46;37.54;100420.31;5031687;28;20061;-83
2023/05/10 09:12:56;;;;;;;15.95;14.35;;;;;;;21.38;38.04;100412.78;5015797;28;20051;-82
2023/05/10 09:15:26;;;;;;;5.05;4.45;;;;;;;21.65;37.45;100401.94;5053387;28;20057;-83
2023/05/10 09:17:54;;;;;;;4.93;3.03;;;;;;;21.39;36.00;100398.38;5011863;28;20037;-82
2023/05/10 09:20:21;;;;;;;13.10;10.77;;;;;;;21.61;37.60;100401.31;5030961;28;20059;-82
2023/05/10 09:22:48;;;;;;;6.55;3.45;;;;;;;21.58;37.46;100411.38;5014621;28;20052;-83
2023/05/10 09:25:16;;;;;;;6.28;3.60;;;;;;;21.18;37.58;100394.44;5005936;28;20049;-83
2023/05/10 09:27:46;;;;;;;3.28;2.80;;;;;;;21.14;38.36;100399.19;5031275;28;20040;-83
2023/05/10 09:30:17;;;;;;;3.40;2.90;;;;;;;21.48;38.98;100404.94;5011112;28;20044;-82
2023/05/10 09:32:46;;;;;;;4.45;2.92;;;;;;;21.02;37.25;100408.06;5034924;28;20041;-83
2023/05/10 09:35:15;;;;;;;11.93;3.38;;;;;;;21.52;37.11;100398.38;5015862;28;20064;-82
2023/05/10 09:37:47;;;;;;;7.07;3.30;;;;;;;21.91;37.68;100398.25;5032515;28;20485;-82
2023/05/10 09:40:25;;;;;;;5.07;2.70;;;;;;;21.76;37.28;100396.63;5022509;28;20034;-82
2023/05/10 09:43:00;;;;;;;5.20;3.03;;;;;;;22.08;37.36;100398.88;5007082;28;20068;-84
2023/05/10 09:45:29;;;;;;;4.68;2.72;;;;;;;22.05;37.18;100404.47;5035263;28;20047;-81
2023/05/10 09:47:56;;;;;;;3.88;2.80;;;;;;;22.30;36.69;100400.88;5016871;28;20045;-83
2023/05/10 09:50:23;;;;;;;4.75;2.40;;;;;;;22.50;37.15;100399.41;5012915;28;20129;-82
2023/05/10 09:52:55;;;;;;;2.83;2.33;;;;;;;22.65;36.29;100406.34;5019032;28;20041;-82
2023/05/10 09:55:23;;;;;;;7.15;3.13;;;;;;;22.19;34.91;100405.19;5002597;28;20037;-82
2023/05/10 09:57:59;;;;;;;3.30;2.80;;;;;;;22.42;35.75;100410.72;5047604;28;20037;-83
2023/05/10 10:00:26;;;;;;;4.03;3.13;;;;;;;22.74;36.92;100395.72;5030253;28;20037;-83
2023/05/10 10:02:57;;;;;;;22.85;5.25;;;;;;;22.88;35.80;100405.50;5033474;28;20033;-84
2023/05/10 10:05:31;;;;;;;3.30;2.60;;;;;;;22.23;35.39;100410.38;5001936;28;20099;-82
2023/05/10 10:07:58;;;;;;;;;;;;;;;22.63;36.46;100403.78;5025613;28;20037;-81
2023/05/10 10:10:25;;;;;;;4.53;2.88;;;;;;;22.86;34.31;100399.34;5017974;28;19921;-83
2023/05/10 10:12:53;;;;;;;8.68;3.00;;;;;;;22.42;35.87;100403.50;5029397;28;20411;-84
2023/05/10 10:15:23;;;;;;;4.28;2.70;;;;;;;22.42;35.26;100392.75;5017504;28;20045;-85
2023/05/10 10:17:52;;;;;;;6.00;2.92;;;;;;;22.55;35.32;100397.25;5016514;28;20037;-83
2023/05/10 10:20:20;;;;;;;4.55;2.88;;;;;;;22.69;35.20;100413.19;5035759;28;20049;-84
2023/05/10 10:22:47;;;;;;;4.00;3.05;;;;;;;22.76;35.42;100403.69;5018231;28;20032;-83
2023/05/10 10:25:16;;;;;;;4.03;2.50;;;;;;;22.82;34.46;100402.38;5010992;28;20062;-85
2023/05/10 10:27:52;;;;;;;3.53;2.47;;;;;;;22.52;33.77;100397.44;5033344;28;20457;-83
2023/05/10 10:30:42;;;;;;;3.55;2.40;;;;;;;22.90;35.67;100383.84;5038032;28;20032;-86
2023/05/10 10:33:26;;;;;;;4.03;2.60;;;;;;;22.90;34.31;100383.84;5037772;28;20045;-84
2023/05/10 10:35:58;;;;;;;4.43;2.70;;;;;;;23.00;34.55;100383.00;5035786;28;20049;-85
2023/05/10 10:38:25;;;;;;;4.93;2.70;;;;;;;23.11;34.84;100387.56;5015535;28;20041;-85
2023/05/10 10:41:02;;;;;;;3.72;2.67;;;;;;;23.31;34.36;100388.75;5030940;28;20029;-85
2023/05/10 10:43:30;;;;;;;4.38;2.53;;;;;;;23.67;33.72;100381.47;5039908;28;20112;-84
2023/05/10 10:46:13;;;;;;;2.30;2.10;;;;;;;23.75;35.38;100393.34;5038462;28;20131;-84
2023/05/10 10:48:41;;;;;;;;;;;;;;;23.08;33.41;100385.13;5020863;28;20060;-85
2023/05/10 10:51:08;;;;;;;2.67;2.40;;;;;;;23.51;34.28;100396.13;5021101;28;20097;-85
2023/05/10 10:53:38;;;;;;;4.30;2.75;;;;;;;23.58;32.92;100378.47;5007527;28;20072;-84
2023/05/10 10:56:13;;;;;;;4.20;2.28;;;;;;;23.85;32.92;100399.72;5060225;28;20033;-84
2023/05/10 10:58:40;;;;;;;2.78;2.50;;;;;;;24.06;32.12;100385.50;5034450;28;20072;-83
2023/05/10 11:01:16;;;;;;;3.70;2.67;;;;;;;24.37;32.84;100381.16;5026498;28;20045;-84
2023/05/10 11:04:06;;;;;;;4.45;3.30;;;;;;;23.70;32.22;100394.69;5020662;28;20041;-82
2023/05/10 11:06:34;;;;;;;4.55;2.60;;;;;;;23.46;32.26;100387.53;5023007;28;20055;-84
2023/05/10 11:09:09;;;;;;;2.75;2.30;;;;;;;23.84;33.98;100395.31;5003463;28;20034;-84
2023/05/10 11:11:36;;;;;;;2.75;2.28;;;;;;;22.74;33.12;100403.81;5030987;28;20101;-83
2023/05/10 11:14:05;;;;;;;3.50;2.40;;;;;;;22.73;34.28;100388.63;5046294;28;20080;-84
2023/05/10 11:16:44;;;;;;;70.30;13.38;;;;;;;22.52;34.46;100390.22;5040388;28;20528;-84
2023/05/10 11:19:12;;;;;;;4.03;2.80;;;;;;;22.57;33.72;100377.28;5014799;28;20041;-84
2023/05/10 11:21:51;;;;;;;35.67;7.00;;;;;;;22.97;33.91;100377.00;5005137;28;20051;-83
2023/05/10 11:24:20;;;;;;;3.92;2.92;;;;;;;23.21;35.64;100394.00;5033130;28;20045;-85
2023/05/10 11:26:50;;;;;;;3.80;2.40;;;;;;;23.27;32.21;100388.09;5014592;28;20037;-81
2023/05/10 11:29:16;;;;;;;5.28;2.72;;;;;;;23.28;34.31;100389.81;5013457;28;20045;-85
2023/05/10 11:31:47;;;;;;;3.03;2.72;;;;;;;23.58;32.37;100391.97;5011409;28;20503;-85
2023/05/10 11:34:29;;;;;;;7.00;2.63;;;;;;;23.51;31.93;100398.81;5031702;28;20735;-86
2023/05/10 11:36:56;;;;;;;5.68;2.53;;;;;;;23.59;32.80;100396.41;5030506;28;20036;-85